sensor_id;sensor_type;location;lat;lon;timestamp;P1;durP1;ratioP1;P2;durP2;ratioP2
42432;SDS011;28071;48.232;20.668;2023-06-10T00:01:09;0.68;;;0.45;;
42432;SDS011;28071;48.232;20.668;2023-06-10T00:06:10;1.45;;;1.00;;
42432;SDS011;28071;48.232;20.668;2023-06-10T00:11:10;0.90;;;0.50;;
42432;SDS011;28071;48.232;20.668;2023-06-10T00:16:11;1.27;;;0.50;;
42432;SDS011;28071;48.232;20.668;2023-06-10T00:21:11;0.82;;;0.43;;
42432;SDS011;28071;48.232;20.668;2023-06-10T00:26:13;0.60;;;0.60;;
42432;SDS011;28071;48.232;20.668;2023-06-10T00:31:13;0.38;;;0.30;;
42432;SDS011;28071;48.232;20.668;2023-06-10T00:36:14;0.52;;;0.47;;
42432;SDS011;28071;48.232;20.668;2023-06-10T00:41:14;0.32;;;0.32;;
42432;SDS011;28071;48.232;20.668;2023-06-10T00:46:15;1.15;;;0.50;;
42432;SDS011;28071;48.232;20.668;2023-06-10T00:51:16;1.25;;;0.70;;
42432;SDS011;28071;48.232;20.668;2023-06-10T00:56:18;0.38;;;0.38;;
42432;SDS011;28071;48.232;20.668;2023-06-10T01:01:19;1.13;;;0.80;;
42432;SDS011;28071;48.232;20.668;2023-06-10T01:11:21;0.98;;;0.68;;
42432;SDS011;28071;48.232;20.668;2023-06-10T01:16:28;2.13;;;1.23;;
42432;SDS011;28071;48.232;20.668;2023-06-10T01:21:29;1.90;;;1.02;;
42432;SDS011;28071;48.232;20.668;2023-06-10T01:26:32;0.70;;;0.70;;
42432;SDS011;28071;48.232;20.668;2023-06-10T01:31:55;1.27;;;1.13;;
42432;SDS011;28071;48.232;20.668;2023-06-10T01:37:09;1.63;;;1.00;;
42432;SDS011;28071;48.232;20.668;2023-06-10T01:42:14;0.80;;;0.73;;
42432;SDS011;28071;48.232;20.668;2023-06-10T01:47:15;1.92;;;0.98;;
42432;SDS011;28071;48.232;20.668;2023-06-10T01:52:17;1.02;;;0.80;;
42432;SDS011;28071;48.232;20.668;2023-06-10T01:57:17;1.40;;;0.90;;
42432;SDS011;28071;48.232;20.668;2023-06-10T02:02:18;0.55;;;0.50;;
42432;SDS011;28071;48.232;20.668;2023-06-10T02:07:18;0.80;;;0.60;;
42432;SDS011;28071;48.232;20.668;2023-06-10T02:12:19;1.70;;;1.00;;
42432;SDS011;28071;48.232;20.668;2023-06-10T02:17:19;1.50;;;0.52;;
42432;SDS011;28071;48.232;20.668;2023-06-10T02:22:20;0.40;;;0.40;;
42432;SDS011;28071;48.232;20.668;2023-06-10T02:27:21;0.88;;;0.75;;
42432;SDS011;28071;48.232;20.668;2023-06-10T02:32:22;0.95;;;0.43;;
42432;SDS011;28071;48.232;20.668;2023-06-10T02:37:22;1.13;;;0.35;;
42432;SDS011;28071;48.232;20.668;2023-06-10T02:42:23;1.67;;;1.13;;
42432;SDS011;28071;48.232;20.668;2023-06-10T02:47:23;1.00;;;0.90;;
42432;SDS011;28071;48.232;20.668;2023-06-10T02:52:24;2.38;;;0.98;;
42432;SDS011;28071;48.232;20.668;2023-06-10T02:57:25;3.40;;;1.30;;
42432;SDS011;28071;48.232;20.668;2023-06-10T03:02:25;1.58;;;1.10;;
42432;SDS011;28071;48.232;20.668;2023-06-10T03:07:29;1.70;;;1.10;;
42432;SDS011;28071;48.232;20.668;2023-06-10T03:12:30;1.67;;;1.48;;
42432;SDS011;28071;48.232;20.668;2023-06-10T03:17:30;2.63;;;1.17;;
42432;SDS011;28071;48.232;20.668;2023-06-10T03:22:32;2.97;;;1.23;;
42432;SDS011;28071;48.232;20.668;2023-06-10T03:27:32;3.20;;;1.35;;
42432;SDS011;28071;48.232;20.668;2023-06-10T03:32:33;0.95;;;0.93;;
42432;SDS011;28071;48.232;20.668;2023-06-10T03:37:33;1.70;;;1.15;;
42432;SDS011;28071;48.232;20.668;2023-06-10T03:42:36;1.05;;;0.80;;
42432;SDS011;28071;48.232;20.668;2023-06-10T03:47:37;2.72;;;0.98;;
42432;SDS011;28071;48.232;20.668;2023-06-10T03:52:37;0.60;;;0.57;;
42432;SDS011;28071;48.232;20.668;2023-06-10T03:57:38;0.82;;;0.80;;
42432;SDS011;28071;48.232;20.668;2023-06-10T04:02:38;0.43;;;0.43;;
42432;SDS011;28071;48.232;20.668;2023-06-10T04:07:45;0.63;;;0.60;;
42432;SDS011;28071;48.232;20.668;2023-06-10T04:12:48;1.95;;;1.15;;
42432;SDS011;28071;48.232;20.668;2023-06-10T04:17:48;0.60;;;0.60;;
42432;SDS011;28071;48.232;20.668;2023-06-10T04:22:49;2.22;;;1.73;;
42432;SDS011;28071;48.232;20.668;2023-06-10T04:27:49;5.00;;;2.75;;
42432;SDS011;28071;48.232;20.668;2023-06-10T04:32:50;3.28;;;2.92;;
42432;SDS011;28071;48.232;20.668;2023-06-10T04:37:50;1.50;;;1.23;;
42432;SDS011;28071;48.232;20.668;2023-06-10T04:42:51;1.13;;;1.02;;
42432;SDS011;28071;48.232;20.668;2023-06-10T04:47:51;2.47;;;1.80;;
42432;SDS011;28071;48.232;20.668;2023-06-10T04:52:52;1.58;;;0.98;;
42432;SDS011;28071;48.232;20.668;2023-06-10T04:57:52;1.58;;;0.80;;
42432;SDS011;28071;48.232;20.668;2023-06-10T05:02:53;2.08;;;0.90;;
42432;SDS011;28071;48.232;20.668;2023-06-10T05:07:53;0.90;;;0.88;;
42432;SDS011;28071;48.232;20.668;2023-06-10T05:12:53;3.25;;;2.30;;
42432;SDS011;28071;48.232;20.668;2023-06-10T05:17:56;5.60;;;4.15;;
42432;SDS011;28071;48.232;20.668;2023-06-10T05:22:58;6.97;;;4.10;;
42432;SDS011;28071;48.232;20.668;2023-06-10T05:27:58;6.75;;;4.22;;
42432;SDS011;28071;48.232;20.668;2023-06-10T05:32:59;5.03;;;3.03;;
42432;SDS011;28071;48.232;20.668;2023-06-10T05:37:59;1.00;;;0.90;;
42432;SDS011;28071;48.232;20.668;2023-06-10T05:43:00;5.85;;;3.50;;
42432;SDS011;28071;48.232;20.668;2023-06-10T05:48:00;3.65;;;2.47;;
42432;SDS011;28071;48.232;20.668;2023-06-10T05:53:01;1.27;;;0.95;;
42432;SDS011;28071;48.232;20.668;2023-06-10T05:58:01;1.05;;;0.95;;
42432;SDS011;28071;48.232;20.668;2023-06-10T06:03:02;0.43;;;0.43;;
42432;SDS011;28071;48.232;20.668;2023-06-10T06:08:02;0.63;;;0.60;;
42432;SDS011;28071;48.232;20.668;2023-06-10T06:13:03;0.55;;;0.30;;
42432;SDS011;28071;48.232;20.668;2023-06-10T06:18:04;0.45;;;0.45;;
42432;SDS011;28071;48.232;20.668;2023-06-10T06:23:05;0.60;;;0.52;;
42432;SDS011;28071;48.232;20.668;2023-06-10T06:28:06;0.65;;;0.65;;
42432;SDS011;28071;48.232;20.668;2023-06-10T06:33:07;0.52;;;0.40;;
42432;SDS011;28071;48.232;20.668;2023-06-10T06:38:07;0.57;;;0.50;;
42432;SDS011;28071;48.232;20.668;2023-06-10T06:43:08;0.43;;;0.30;;
42432;SDS011;28071;48.232;20.668;2023-06-10T06:48:08;0.73;;;0.60;;
42432;SDS011;28071;48.232;20.668;2023-06-10T06:53:09;1.02;;;0.52;;
42432;SDS011;28071;48.232;20.668;2023-06-10T06:58:09;1.20;;;0.52;;
42432;SDS011;28071;48.232;20.668;2023-06-10T07:03:10;0.57;;;0.40;;
42432;SDS011;28071;48.232;20.668;2023-06-10T07:08:11;1.13;;;0.68;;
42432;SDS011;28071;48.232;20.668;2023-06-10T07:13:12;1.08;;;0.90;;
42432;SDS011;28071;48.232;20.668;2023-06-10T07:18:12;1.98;;;0.88;;
42432;SDS011;28071;48.232;20.668;2023-06-10T07:23:14;0.75;;;0.50;;
42432;SDS011;28071;48.232;20.668;2023-06-10T07:28:15;0.63;;;0.50;;
42432;SDS011;28071;48.232;20.668;2023-06-10T07:33:15;1.42;;;0.82;;
42432;SDS011;28071;48.232;20.668;2023-06-10T07:38:17;1.20;;;0.85;;
42432;SDS011;28071;48.232;20.668;2023-06-10T07:43:17;1.00;;;0.85;;
42432;SDS011;28071;48.232;20.668;2023-06-10T07:48:18;1.23;;;0.80;;
42432;SDS011;28071;48.232;20.668;2023-06-10T07:53:19;1.20;;;0.40;;
42432;SDS011;28071;48.232;20.668;2023-06-10T07:58:19;1.15;;;0.77;;
42432;SDS011;28071;48.232;20.668;2023-06-10T08:03:20;2.38;;;0.93;;
42432;SDS011;28071;48.232;20.668;2023-06-10T08:08:21;0.82;;;0.50;;
42432;SDS011;28071;48.232;20.668;2023-06-10T08:13:21;0.30;;;0.30;;
42432;SDS011;28071;48.232;20.668;2023-06-10T08:18:22;1.23;;;0.93;;
42432;SDS011;28071;48.232;20.668;2023-06-10T08:23:22;1.35;;;0.80;;
42432;SDS011;28071;48.232;20.668;2023-06-10T08:28:23;0.30;;;0.30;;
42432;SDS011;28071;48.232;20.668;2023-06-10T08:33:23;0.85;;;0.63;;
42432;SDS011;28071;48.232;20.668;2023-06-10T08:38:23;4.18;;;1.17;;
42432;SDS011;28071;48.232;20.668;2023-06-10T08:48:30;0.73;;;0.70;;
42432;SDS011;28071;48.232;20.668;2023-06-10T08:53:33;0.65;;;0.57;;
42432;SDS011;28071;48.232;20.668;2023-06-10T08:58:37;2.10;;;0.82;;
42432;SDS011;28071;48.232;20.668;2023-06-10T09:03:41;0.75;;;0.47;;
42432;SDS011;28071;48.232;20.668;2023-06-10T09:08:42;0.60;;;0.60;;
42432;SDS011;28071;48.232;20.668;2023-06-10T09:13:43;0.95;;;0.20;;
42432;SDS011;28071;48.232;20.668;2023-06-10T09:18:43;0.85;;;0.68;;
42432;SDS011;28071;48.232;20.668;2023-06-10T09:23:44;0.70;;;0.68;;
42432;SDS011;28071;48.232;20.668;2023-06-10T09:28:49;1.27;;;0.60;;
42432;SDS011;28071;48.232;20.668;2023-06-10T09:33:52;0.82;;;0.55;;
42432;SDS011;28071;48.232;20.668;2023-06-10T09:38:56;0.50;;;0.28;;
42432;SDS011;28071;48.232;20.668;2023-06-10T09:43:56;1.05;;;0.52;;
42432;SDS011;28071;48.232;20.668;2023-06-10T09:48:57;1.10;;;0.88;;
42432;SDS011;28071;48.232;20.668;2023-06-10T09:53:58;0.38;;;0.38;;
42432;SDS011;28071;48.232;20.668;2023-06-10T09:58:59;0.20;;;0.20;;
42432;SDS011;28071;48.232;20.668;2023-06-10T10:04:00;0.35;;;0.32;;
42432;SDS011;28071;48.232;20.668;2023-06-10T10:09:01;2.40;;;0.30;;
42432;SDS011;28071;48.232;20.668;2023-06-10T10:14:03;0.40;;;0.30;;
42432;SDS011;28071;48.232;20.668;2023-06-10T10:19:10;0.40;;;0.40;;
42432;SDS011;28071;48.232;20.668;2023-06-10T10:24:18;0.68;;;0.50;;
42432;SDS011;28071;48.232;20.668;2023-06-10T10:29:27;3.60;;;0.60;;
42432;SDS011;28071;48.232;20.668;2023-06-10T10:34:42;0.63;;;0.47;;
42432;SDS011;28071;48.232;20.668;2023-06-10T10:39:53;0.20;;;0.20;;
42432;SDS011;28071;48.232;20.668;2023-06-10T10:44:54;0.63;;;0.40;;
42432;SDS011;28071;48.232;20.668;2023-06-10T10:49:56;0.40;;;0.40;;
42432;SDS011;28071;48.232;20.668;2023-06-10T10:54:59;2.78;;;1.05;;
42432;SDS011;28071;48.232;20.668;2023-06-10T11:00:12;0.50;;;0.30;;
42432;SDS011;28071;48.232;20.668;2023-06-10T11:05:37;0.50;;;0.30;;
42432;SDS011;28071;48.232;20.668;2023-06-10T11:15:50;0.20;;;0.20;;
42432;SDS011;28071;48.232;20.668;2023-06-10T11:20:52;0.10;;;0.10;;
42432;SDS011;28071;48.232;20.668;2023-06-10T11:26:43;0.13;;;0.13;;
42432;SDS011;28071;48.232;20.668;2023-06-10T11:31:38;0.68;;;0.40;;
42432;SDS011;28071;48.232;20.668;2023-06-10T11:36:41;0.30;;;0.30;;
42432;SDS011;28071;48.232;20.668;2023-06-10T11:41:45;0.47;;;0.43;;
42432;SDS011;28071;48.232;20.668;2023-06-10T11:46:47;2.00;;;0.35;;
42432;SDS011;28071;48.232;20.668;2023-06-10T11:51:49;0.20;;;0.20;;
42432;SDS011;28071;48.232;20.668;2023-06-10T11:56:56;0.88;;;0.45;;
42432;SDS011;28071;48.232;20.668;2023-06-10T12:06:58;0.67;;;0.47;;
42432;SDS011;28071;48.232;20.668;2023-06-10T12:17:08;0.63;;;0.60;;
42432;SDS011;28071;48.232;20.668;2023-06-10T12:22:09;0.75;;;0.50;;
42432;SDS011;28071;48.232;20.668;2023-06-10T12:27:12;0.40;;;0.40;;
42432;SDS011;28071;48.232;20.668;2023-06-10T12:32:13;0.50;;;0.30;;
42432;SDS011;28071;48.232;20.668;2023-06-10T12:37:15;1.30;;;0.90;;
42432;SDS011;28071;48.232;20.668;2023-06-10T12:42:16;1.13;;;0.77;;
42432;SDS011;28071;48.232;20.668;2023-06-10T12:47:17;0.45;;;0.45;;
42432;SDS011;28071;48.232;20.668;2023-06-10T12:52:17;0.40;;;0.40;;
42432;SDS011;28071;48.232;20.668;2023-06-10T12:57:17;0.30;;;0.30;;
42432;SDS011;28071;48.232;20.668;2023-06-10T13:02:18;0.40;;;0.40;;
42432;SDS011;28071;48.232;20.668;2023-06-10T13:07:20;0.32;;;0.32;;
42432;SDS011;28071;48.232;20.668;2023-06-10T13:12:22;0.60;;;0.60;;
42432;SDS011;28071;48.232;20.668;2023-06-10T13:17:23;0.73;;;0.68;;
42432;SDS011;28071;48.232;20.668;2023-06-10T13:22:24;0.70;;;0.60;;
42432;SDS011;28071;48.232;20.668;2023-06-10T13:27:26;0.75;;;0.47;;
42432;SDS011;28071;48.232;20.668;2023-06-10T13:32:27;0.75;;;0.70;;
42432;SDS011;28071;48.232;20.668;2023-06-10T13:37:27;2.00;;;0.73;;
42432;SDS011;28071;48.232;20.668;2023-06-10T13:42:27;0.63;;;0.50;;
42432;SDS011;28071;48.232;20.668;2023-06-10T13:47:29;0.80;;;0.50;;
42432;SDS011;28071;48.232;20.668;2023-06-10T13:52:29;0.30;;;0.30;;
42432;SDS011;28071;48.232;20.668;2023-06-10T13:57:30;0.63;;;0.45;;
42432;SDS011;28071;48.232;20.668;2023-06-10T14:02:30;3.17;;;1.90;;
42432;SDS011;28071;48.232;20.668;2023-06-10T14:07:30;2.35;;;0.70;;
42432;SDS011;28071;48.232;20.668;2023-06-10T14:12:31;1.50;;;0.50;;
42432;SDS011;28071;48.232;20.668;2023-06-10T14:17:31;0.90;;;0.73;;
42432;SDS011;28071;48.232;20.668;2023-06-10T14:22:32;0.90;;;0.57;;
42432;SDS011;28071;48.232;20.668;2023-06-10T14:27:32;0.32;;;0.30;;
42432;SDS011;28071;48.232;20.668;2023-06-10T14:32:33;1.75;;;1.20;;
42432;SDS011;28071;48.232;20.668;2023-06-10T14:37:33;0.68;;;0.40;;
42432;SDS011;28071;48.232;20.668;2023-06-10T14:42:33;0.50;;;0.50;;
42432;SDS011;28071;48.232;20.668;2023-06-10T14:47:34;0.30;;;0.30;;
42432;SDS011;28071;48.232;20.668;2023-06-10T14:52:34;0.80;;;0.50;;
42432;SDS011;28071;48.232;20.668;2023-06-10T14:57:35;0.30;;;0.28;;
42432;SDS011;28071;48.232;20.668;2023-06-10T15:02:35;3.25;;;0.40;;
42432;SDS011;28071;48.232;20.668;2023-06-10T15:07:36;0.43;;;0.43;;
42432;SDS011;28071;48.232;20.668;2023-06-10T15:12:36;1.00;;;0.60;;
42432;SDS011;28071;48.232;20.668;2023-06-10T15:17:37;0.40;;;0.40;;
42432;SDS011;28071;48.232;20.668;2023-06-10T15:22:37;1.02;;;0.30;;
42432;SDS011;28071;48.232;20.668;2023-06-10T15:27:38;0.43;;;0.30;;
42432;SDS011;28071;48.232;20.668;2023-06-10T15:32:39;0.60;;;0.60;;
42432;SDS011;28071;48.232;20.668;2023-06-10T15:37:40;0.65;;;0.45;;
42432;SDS011;28071;48.232;20.668;2023-06-10T15:42:40;3.65;;;0.90;;
42432;SDS011;28071;48.232;20.668;2023-06-10T15:47:40;0.30;;;0.30;;
42432;SDS011;28071;48.232;20.668;2023-06-10T15:52:42;0.35;;;0.35;;
42432;SDS011;28071;48.232;20.668;2023-06-10T15:57:42;0.40;;;0.40;;
42432;SDS011;28071;48.232;20.668;2023-06-10T16:02:43;0.98;;;0.80;;
42432;SDS011;28071;48.232;20.668;2023-06-10T16:07:43;1.50;;;0.90;;
42432;SDS011;28071;48.232;20.668;2023-06-10T16:12:44;0.80;;;0.80;;
42432;SDS011;28071;48.232;20.668;2023-06-10T16:17:44;0.60;;;0.60;;
42432;SDS011;28071;48.232;20.668;2023-06-10T16:22:45;1.13;;;0.90;;
42432;SDS011;28071;48.232;20.668;2023-06-10T16:27:45;1.45;;;0.90;;
42432;SDS011;28071;48.232;20.668;2023-06-10T16:32:46;1.35;;;1.17;;
42432;SDS011;28071;48.232;20.668;2023-06-10T16:37:46;4.75;;;1.10;;
42432;SDS011;28071;48.232;20.668;2023-06-10T16:42:47;1.45;;;1.30;;
42432;SDS011;28071;48.232;20.668;2023-06-10T16:47:47;1.50;;;1.30;;
42432;SDS011;28071;48.232;20.668;2023-06-10T16:52:48;2.53;;;2.00;;
42432;SDS011;28071;48.232;20.668;2023-06-10T16:57:48;3.08;;;1.75;;
42432;SDS011;28071;48.232;20.668;2023-06-10T17:02:48;1.65;;;1.38;;
42432;SDS011;28071;48.232;20.668;2023-06-10T17:07:49;1.88;;;1.10;;
42432;SDS011;28071;48.232;20.668;2023-06-10T17:12:49;1.73;;;1.27;;
42432;SDS011;28071;48.232;20.668;2023-06-10T17:17:50;1.50;;;1.13;;
42432;SDS011;28071;48.232;20.668;2023-06-10T17:22:50;2.33;;;1.60;;
42432;SDS011;28071;48.232;20.668;2023-06-10T17:27:51;2.47;;;1.80;;
42432;SDS011;28071;48.232;20.668;2023-06-10T17:32:51;4.20;;;1.80;;
42432;SDS011;28071;48.232;20.668;2023-06-10T17:37:51;2.05;;;0.40;;
42432;SDS011;28071;48.232;20.668;2023-06-10T17:42:52;0.80;;;0.73;;
42432;SDS011;28071;48.232;20.668;2023-06-10T17:47:52;0.70;;;0.70;;
42432;SDS011;28071;48.232;20.668;2023-06-10T17:52:53;1.25;;;0.98;;
42432;SDS011;28071;48.232;20.668;2023-06-10T17:57:54;2.58;;;1.05;;
42432;SDS011;28071;48.232;20.668;2023-06-10T18:02:55;1.35;;;1.10;;
42432;SDS011;28071;48.232;20.668;2023-06-10T18:07:55;3.20;;;2.00;;
42432;SDS011;28071;48.232;20.668;2023-06-10T18:12:56;1.52;;;1.38;;
42432;SDS011;28071;48.232;20.668;2023-06-10T18:17:57;1.67;;;1.58;;
42432;SDS011;28071;48.232;20.668;2023-06-10T18:22:57;1.45;;;1.25;;
42432;SDS011;28071;48.232;20.668;2023-06-10T18:27:58;1.50;;;1.08;;
42432;SDS011;28071;48.232;20.668;2023-06-10T18:32:58;1.52;;;1.33;;
42432;SDS011;28071;48.232;20.668;2023-06-10T18:37:59;1.17;;;1.02;;
42432;SDS011;28071;48.232;20.668;2023-06-10T18:42:59;2.20;;;1.30;;
42432;SDS011;28071;48.232;20.668;2023-06-10T18:48:00;4.88;;;1.75;;
42432;SDS011;28071;48.232;20.668;2023-06-10T18:53:00;0.98;;;0.90;;
42432;SDS011;28071;48.232;20.668;2023-06-10T18:58:01;2.88;;;1.25;;
42432;SDS011;28071;48.232;20.668;2023-06-10T19:03:02;1.33;;;1.10;;
42432;SDS011;28071;48.232;20.668;2023-06-10T19:08:03;2.25;;;1.27;;
42432;SDS011;28071;48.232;20.668;2023-06-10T19:13:03;2.13;;;1.15;;
42432;SDS011;28071;48.232;20.668;2023-06-10T19:18:04;1.77;;;1.40;;
42432;SDS011;28071;48.232;20.668;2023-06-10T19:23:04;1.00;;;0.90;;
42432;SDS011;28071;48.232;20.668;2023-06-10T19:28:05;2.15;;;1.17;;
42432;SDS011;28071;48.232;20.668;2023-06-10T19:33:08;2.00;;;1.13;;
42432;SDS011;28071;48.232;20.668;2023-06-10T19:38:09;1.48;;;1.13;;
42432;SDS011;28071;48.232;20.668;2023-06-10T19:43:09;1.58;;;1.42;;
42432;SDS011;28071;48.232;20.668;2023-06-10T19:48:10;1.05;;;0.88;;
42432;SDS011;28071;48.232;20.668;2023-06-10T19:53:10;0.75;;;0.75;;
42432;SDS011;28071;48.232;20.668;2023-06-10T19:58:11;1.50;;;0.88;;
42432;SDS011;28071;48.232;20.668;2023-06-10T20:03:11;1.20;;;1.08;;
42432;SDS011;28071;48.232;20.668;2023-06-10T20:08:11;0.70;;;0.63;;
42432;SDS011;28071;48.232;20.668;2023-06-10T20:13:13;1.08;;;0.98;;
42432;SDS011;28071;48.232;20.668;2023-06-10T20:18:14;1.35;;;0.93;;
42432;SDS011;28071;48.232;20.668;2023-06-10T20:23:14;1.00;;;0.93;;
42432;SDS011;28071;48.232;20.668;2023-06-10T20:28:15;2.22;;;1.00;;
42432;SDS011;28071;48.232;20.668;2023-06-10T20:33:15;1.38;;;1.00;;
42432;SDS011;28071;48.232;20.668;2023-06-10T20:38:15;2.78;;;1.67;;
42432;SDS011;28071;48.232;20.668;2023-06-10T20:43:16;0.82;;;0.82;;
42432;SDS011;28071;48.232;20.668;2023-06-10T20:48:16;1.35;;;1.02;;
42432;SDS011;28071;48.232;20.668;2023-06-10T20:53:17;2.05;;;1.13;;
42432;SDS011;28071;48.232;20.668;2023-06-10T20:58:17;0.88;;;0.82;;
42432;SDS011;28071;48.232;20.668;2023-06-10T21:03:18;0.90;;;0.90;;
42432;SDS011;28071;48.232;20.668;2023-06-10T21:08:18;2.17;;;1.23;;
42432;SDS011;28071;48.232;20.668;2023-06-10T21:13:19;1.15;;;1.05;;
42432;SDS011;28071;48.232;20.668;2023-06-10T21:18:19;1.42;;;0.80;;
42432;SDS011;28071;48.232;20.668;2023-06-10T21:23:20;1.38;;;0.80;;
42432;SDS011;28071;48.232;20.668;2023-06-10T21:28:20;1.20;;;0.80;;
42432;SDS011;28071;48.232;20.668;2023-06-10T21:33:21;2.00;;;0.80;;
42432;SDS011;28071;48.232;20.668;2023-06-10T21:38:22;0.90;;;0.70;;
42432;SDS011;28071;48.232;20.668;2023-06-10T21:43:24;1.30;;;1.10;;
42432;SDS011;28071;48.232;20.668;2023-06-10T21:48:24;3.92;;;1.63;;
42432;SDS011;28071;48.232;20.668;2023-06-10T21:53:25;2.17;;;1.17;;
42432;SDS011;28071;48.232;20.668;2023-06-10T21:58:25;1.90;;;1.10;;
42432;SDS011;28071;48.232;20.668;2023-06-10T22:03:26;1.50;;;1.40;;
42432;SDS011;28071;48.232;20.668;2023-06-10T22:08:26;1.10;;;0.90;;
42432;SDS011;28071;48.232;20.668;2023-06-10T22:13:26;2.65;;;1.10;;
42432;SDS011;28071;48.232;20.668;2023-06-10T22:18:27;1.42;;;1.00;;
42432;SDS011;28071;48.232;20.668;2023-06-10T22:23:28;1.17;;;1.08;;
42432;SDS011;28071;48.232;20.668;2023-06-10T22:28:28;1.92;;;0.90;;
42432;SDS011;28071;48.232;20.668;2023-06-10T22:33:29;1.88;;;0.88;;
42432;SDS011;28071;48.232;20.668;2023-06-10T22:38:29;1.10;;;0.70;;
42432;SDS011;28071;48.232;20.668;2023-06-10T22:43:30;1.17;;;0.98;;
42432;SDS011;28071;48.232;20.668;2023-06-10T22:48:30;2.55;;;0.90;;
42432;SDS011;28071;48.232;20.668;2023-06-10T22:53:31;0.98;;;0.88;;
42432;SDS011;28071;48.232;20.668;2023-06-10T22:58:31;2.08;;;0.75;;
42432;SDS011;28071;48.232;20.668;2023-06-10T23:03:32;1.10;;;1.00;;
42432;SDS011;28071;48.232;20.668;2023-06-10T23:08:32;1.60;;;0.82;;
42432;SDS011;28071;48.232;20.668;2023-06-10T23:13:32;1.23;;;1.13;;
42432;SDS011;28071;48.232;20.668;2023-06-10T23:18:33;0.60;;;0.60;;
42432;SDS011;28071;48.232;20.668;2023-06-10T23:23:34;2.38;;;1.25;;
42432;SDS011;28071;48.232;20.668;2023-06-10T23:28:36;1.08;;;0.80;;
42432;SDS011;28071;48.232;20.668;2023-06-10T23:33:37;2.28;;;0.75;;
42432;SDS011;28071;48.232;20.668;2023-06-10T23:38:38;0.98;;;0.77;;
42432;SDS011;28071;48.232;20.668;2023-06-10T23:43:39;0.82;;;0.70;;
42432;SDS011;28071;48.232;20.668;2023-06-10T23:48:39;7.72;;;1.98;;
42432;SDS011;28071;48.232;20.668;2023-06-10T23:53:40;1.38;;;1.10;;
42432;SDS011;28071;48.232;20.668;2023-06-10T23:58:40;0.98;;;0.40;;
